sensor_id;sensor_type;location;lat;lon;timestamp;pressure;altitude;pressure_sealevel;temperature;humidity
54910;BME280;63189;51.240;9.964;2023-02-28T00:02:15;99098.66;;;-0.73;67.04
54910;BME280;63189;51.240;9.964;2023-02-28T00:04:43;99102.13;;;-0.73;67.24
54910;BME280;63189;51.240;9.964;2023-02-28T00:07:09;99097.78;;;-0.74;68.37
54910;BME280;63189;51.240;9.964;2023-02-28T00:09:34;99101.13;;;-0.76;68.17
54910;BME280;63189;51.240;9.964;2023-02-28T00:11:59;99099.47;;;-0.74;68.49
54910;BME280;63189;51.240;9.964;2023-02-28T00:14:25;99095.97;;;-0.78;68.21
54910;BME280;63189;51.240;9.964;2023-02-28T00:16:50;99100.81;;;-0.85;67.61
54910;BME280;63189;51.240;9.964;2023-02-28T00:19:15;99094.97;;;-0.83;68.47
54910;BME280;63189;51.240;9.964;2023-02-28T00:21:40;99097.56;;;-0.81;68.63
54910;BME280;63189;51.240;9.964;2023-02-28T00:24:06;99100.25;;;-0.77;69.08
54910;BME280;63189;51.240;9.964;2023-02-28T00:26:32;99103.59;;;-0.79;68.78
54910;BME280;63189;51.240;9.964;2023-02-28T00:28:57;99098.47;;;-0.79;68.29
54910;BME280;63189;51.240;9.964;2023-02-28T00:31:23;99101.03;;;-0.79;68.73
54910;BME280;63189;51.240;9.964;2023-02-28T00:33:49;99104.47;;;-0.79;69.03
54910;BME280;63189;51.240;9.964;2023-02-28T00:36:15;99102.69;;;-0.81;69.30
54910;BME280;63189;51.240;9.964;2023-02-28T00:38:41;99104.41;;;-0.80;68.92
54910;BME280;63189;51.240;9.964;2023-02-28T00:41:07;99094.19;;;-0.80;69.19
54910;BME280;63189;51.240;9.964;2023-02-28T00:43:33;99095.91;;;-0.79;69.19
54910;BME280;63189;51.240;9.964;2023-02-28T00:46:01;99100.16;;;-0.80;69.10
54910;BME280;63189;51.240;9.964;2023-02-28T00:48:27;99097.56;;;-0.81;69.12
54910;BME280;63189;51.240;9.964;2023-02-28T00:50:53;99089.88;;;-0.81;69.68
54910;BME280;63189;51.240;9.964;2023-02-28T00:53:18;99091.50;;;-0.83;68.51
54910;BME280;63189;51.240;9.964;2023-02-28T00:55:43;99104.38;;;-0.82;68.08
54910;BME280;63189;51.240;9.964;2023-02-28T00:58:08;99094.88;;;-0.84;67.83
54910;BME280;63189;51.240;9.964;2023-02-28T01:00:34;99095.84;;;-0.82;68.18
54910;BME280;63189;51.240;9.964;2023-02-28T01:02:59;99096.75;;;-0.80;68.01
54910;BME280;63189;51.240;9.964;2023-02-28T01:05:24;99099.19;;;-0.83;67.33
54910;BME280;63189;51.240;9.964;2023-02-28T01:07:50;99097.56;;;-0.81;67.53
54910;BME280;63189;51.240;9.964;2023-02-28T01:10:15;99086.50;;;-0.80;67.61
54910;BME280;63189;51.240;9.964;2023-02-28T01:12:41;99089.94;;;-0.80;67.66
54910;BME280;63189;51.240;9.964;2023-02-28T01:15:06;99087.38;;;-0.80;68.46
54910;BME280;63189;51.240;9.964;2023-02-28T01:17:32;99091.66;;;-0.79;68.25
54910;BME280;63189;51.240;9.964;2023-02-28T01:19:57;99094.28;;;-0.77;68.00
54910;BME280;63189;51.240;9.964;2023-02-28T01:22:23;99087.41;;;-0.78;68.74
54910;BME280;63189;51.240;9.964;2023-02-28T01:24:48;99095.91;;;-0.79;68.25
54910;BME280;63189;51.240;9.964;2023-02-28T01:27:13;99086.47;;;-0.82;67.67
54910;BME280;63189;51.240;9.964;2023-02-28T01:29:39;99080.56;;;-0.79;67.96
54910;BME280;63189;51.240;9.964;2023-02-28T01:32:04;99086.25;;;-0.88;66.19
54910;BME280;63189;51.240;9.964;2023-02-28T01:34:30;99093.19;;;-0.84;66.98
54910;BME280;63189;51.240;9.964;2023-02-28T01:36:55;99092.31;;;-0.84;67.38
54910;BME280;63189;51.240;9.964;2023-02-28T01:39:24;99080.47;;;-0.82;68.04
54910;BME280;63189;51.240;9.964;2023-02-28T01:41:49;99082.94;;;-0.84;67.74
54910;BME280;63189;51.240;9.964;2023-02-28T01:47:17;99080.38;;;-0.84;66.97
54910;BME280;63189;51.240;9.964;2023-02-28T01:49:43;99077.09;;;-0.81;66.72
54910;BME280;63189;51.240;9.964;2023-02-28T01:52:10;99076.97;;;-0.84;65.57
54910;BME280;63189;51.240;9.964;2023-02-28T01:54:40;99071.97;;;-0.81;66.56
54910;BME280;63189;51.240;9.964;2023-02-28T01:57:10;99070.22;;;-0.82;66.64
54910;BME280;63189;51.240;9.964;2023-02-28T01:59:49;99072.06;;;-0.78;66.92
54910;BME280;63189;51.240;9.964;2023-02-28T02:02:19;99063.50;;;-0.79;66.86
54910;BME280;63189;51.240;9.964;2023-02-28T02:04:58;99062.69;;;-0.78;66.84
54910;BME280;63189;51.240;9.964;2023-02-28T02:07:29;99058.44;;;-0.77;67.21
54910;BME280;63189;51.240;9.964;2023-02-28T02:10:04;99066.94;;;-0.78;67.67
54910;BME280;63189;51.240;9.964;2023-02-28T02:15:13;99061.81;;;-0.78;67.30
54910;BME280;63189;51.240;9.964;2023-02-28T02:17:48;99065.19;;;-0.79;67.32
54910;BME280;63189;51.240;9.964;2023-02-28T02:23:20;99057.44;;;-0.82;66.18
54910;BME280;63189;51.240;9.964;2023-02-28T02:26:02;99060.00;;;-0.82;67.13
54910;BME280;63189;51.240;9.964;2023-02-28T02:34:23;99055.66;;;-0.83;67.81
54910;BME280;63189;51.240;9.964;2023-02-28T02:42:12;99057.34;;;-0.84;68.44
54910;BME280;63189;51.240;9.964;2023-02-28T02:44:43;99059.88;;;-0.85;68.83
54910;BME280;63189;51.240;9.964;2023-02-28T02:47:15;99061.59;;;-0.84;69.04
54910;BME280;63189;51.240;9.964;2023-02-28T02:49:48;99053.84;;;-0.88;68.60
54910;BME280;63189;51.240;9.964;2023-02-28T02:52:17;99063.19;;;-0.88;69.06
54910;BME280;63189;51.240;9.964;2023-02-28T02:54:45;99059.69;;;-0.92;68.80
54910;BME280;63189;51.240;9.964;2023-02-28T02:57:21;99070.78;;;-0.91;67.54
54910;BME280;63189;51.240;9.964;2023-02-28T02:59:48;99063.06;;;-0.93;67.94
54910;BME280;63189;51.240;9.964;2023-02-28T03:02:17;99058.88;;;-0.91;67.92
54910;BME280;63189;51.240;9.964;2023-02-28T03:04:50;99060.56;;;-0.91;68.01
54910;BME280;63189;51.240;9.964;2023-02-28T03:07:17;99060.56;;;-0.91;67.28
54910;BME280;63189;51.240;9.964;2023-02-28T03:09:50;99061.38;;;-0.92;66.58
54910;BME280;63189;51.240;9.964;2023-02-28T03:12:16;99060.44;;;-0.94;64.54
54910;BME280;63189;51.240;9.964;2023-02-28T03:14:50;99064.84;;;-0.90;66.44
54910;BME280;63189;51.240;9.964;2023-02-28T03:20:25;99058.88;;;-0.91;66.42
54910;BME280;63189;51.240;9.964;2023-02-28T03:23:16;99056.34;;;-0.89;67.37
54910;BME280;63189;51.240;9.964;2023-02-28T03:30:56;99063.88;;;-0.94;67.53
54910;BME280;63189;51.240;9.964;2023-02-28T03:33:27;99059.47;;;-0.98;67.44
54910;BME280;63189;51.240;9.964;2023-02-28T03:35:58;99058.59;;;-0.98;67.20
54910;BME280;63189;51.240;9.964;2023-02-28T03:38:45;99057.69;;;-1.00;64.75
54910;BME280;63189;51.240;9.964;2023-02-28T03:41:15;99057.53;;;-1.05;64.25
54910;BME280;63189;51.240;9.964;2023-02-28T03:43:48;99060.16;;;-1.03;65.38
54910;BME280;63189;51.240;9.964;2023-02-28T03:46:17;99061.03;;;-1.03;65.33
54910;BME280;63189;51.240;9.964;2023-02-28T03:48:55;99058.38;;;-1.04;64.61
54910;BME280;63189;51.240;9.964;2023-02-28T03:51:23;99054.97;;;-1.05;63.72
54910;BME280;63189;51.240;9.964;2023-02-28T03:53:54;99059.16;;;-1.07;64.55
54910;BME280;63189;51.240;9.964;2023-02-28T03:56:27;99064.31;;;-1.05;65.71
54910;BME280;63189;51.240;9.964;2023-02-28T03:59:12;99055.78;;;-1.06;65.27
54910;BME280;63189;51.240;9.964;2023-02-28T04:01:41;99059.13;;;-1.08;64.93
54910;BME280;63189;51.240;9.964;2023-02-28T04:04:08;99065.09;;;-1.08;64.95
54910;BME280;63189;51.240;9.964;2023-02-28T04:06:35;99065.94;;;-1.09;66.13
54910;BME280;63189;51.240;9.964;2023-02-28T04:09:01;99065.84;;;-1.12;65.59
54910;BME280;63189;51.240;9.964;2023-02-28T04:11:41;99069.25;;;-1.11;66.10
54910;BME280;63189;51.240;9.964;2023-02-28T04:14:08;99064.09;;;-1.13;66.42
54910;BME280;63189;51.240;9.964;2023-02-28T04:16:36;99065.84;;;-1.12;66.86
54910;BME280;63189;51.240;9.964;2023-02-28T04:19:06;99067.47;;;-1.14;66.66
54910;BME280;63189;51.240;9.964;2023-02-28T04:21:34;99072.59;;;-1.14;66.15
54910;BME280;63189;51.240;9.964;2023-02-28T04:23:59;99066.66;;;-1.13;66.53
54910;BME280;63189;51.240;9.964;2023-02-28T04:26:31;99062.41;;;-1.12;67.29
54910;BME280;63189;51.240;9.964;2023-02-28T04:28:58;99063.09;;;-1.17;65.61
54910;BME280;63189;51.240;9.964;2023-02-28T04:31:23;99063.97;;;-1.16;66.28
54910;BME280;63189;51.240;9.964;2023-02-28T04:33:49;99069.03;;;-1.18;66.12
54910;BME280;63189;51.240;9.964;2023-02-28T04:36:14;99074.84;;;-1.23;63.60
54910;BME280;63189;51.240;9.964;2023-02-28T04:38:43;99067.25;;;-1.20;64.20
54910;BME280;63189;51.240;9.964;2023-02-28T04:41:09;99074.22;;;-1.16;64.14
54910;BME280;63189;51.240;9.964;2023-02-28T04:43:34;99076.75;;;-1.16;63.88
54910;BME280;63189;51.240;9.964;2023-02-28T04:46:02;99081.16;;;-1.13;65.28
54910;BME280;63189;51.240;9.964;2023-02-28T04:48:29;99082.84;;;-1.14;65.90
54910;BME280;63189;51.240;9.964;2023-02-28T04:51:00;99082.94;;;-1.11;66.44
54910;BME280;63189;51.240;9.964;2023-02-28T04:53:27;99075.94;;;-1.15;67.11
54910;BME280;63189;51.240;9.964;2023-02-28T04:55:53;99081.06;;;-1.15;67.42
54910;BME280;63189;51.240;9.964;2023-02-28T04:58:18;99080.16;;;-1.17;68.12
54910;BME280;63189;51.240;9.964;2023-02-28T05:00:44;99083.53;;;-1.18;68.43
54910;BME280;63189;51.240;9.964;2023-02-28T05:03:09;99082.63;;;-1.20;68.24
54910;BME280;63189;51.240;9.964;2023-02-28T05:05:34;99081.78;;;-1.19;68.52
54910;BME280;63189;51.240;9.964;2023-02-28T05:08:00;99086.88;;;-1.21;68.63
54910;BME280;63189;51.240;9.964;2023-02-28T05:10:25;99084.25;;;-1.22;68.04
54910;BME280;63189;51.240;9.964;2023-02-28T05:12:50;99086.69;;;-1.25;68.76
54910;BME280;63189;51.240;9.964;2023-02-28T05:15:17;99085.81;;;-1.26;68.77
54910;BME280;63189;51.240;9.964;2023-02-28T05:17:42;99094.44;;;-1.24;68.78
54910;BME280;63189;51.240;9.964;2023-02-28T05:20:08;99092.75;;;-1.23;68.89
54910;BME280;63189;51.240;9.964;2023-02-28T05:22:36;99090.19;;;-1.23;69.72
54910;BME280;63189;51.240;9.964;2023-02-28T05:25:03;99088.38;;;-1.26;69.45
54910;BME280;63189;51.240;9.964;2023-02-28T05:27:29;99094.34;;;-1.25;69.95
54910;BME280;63189;51.240;9.964;2023-02-28T05:29:55;99089.97;;;-1.29;69.49
54910;BME280;63189;51.240;9.964;2023-02-28T05:32:21;99096.00;;;-1.27;69.81
54910;BME280;63189;51.240;9.964;2023-02-28T05:34:46;99101.25;;;-1.24;69.77
54910;BME280;63189;51.240;9.964;2023-02-28T05:37:13;99107.16;;;-1.25;69.15
54910;BME280;63189;51.240;9.964;2023-02-28T05:39:39;99111.56;;;-1.21;69.83
54910;BME280;63189;51.240;9.964;2023-02-28T05:42:04;99117.56;;;-1.21;70.36
54910;BME280;63189;51.240;9.964;2023-02-28T05:44:30;99116.69;;;-1.21;70.73
54910;BME280;63189;51.240;9.964;2023-02-28T05:46:55;99109.06;;;-1.20;70.99
54910;BME280;63189;51.240;9.964;2023-02-28T05:49:21;99106.47;;;-1.21;71.62
54910;BME280;63189;51.240;9.964;2023-02-28T05:51:46;99114.13;;;-1.21;71.86
54910;BME280;63189;51.240;9.964;2023-02-28T05:54:11;99116.66;;;-1.23;72.38
54910;BME280;63189;51.240;9.964;2023-02-28T05:56:36;99107.97;;;-1.26;73.42
54910;BME280;63189;51.240;9.964;2023-02-28T05:59:05;99109.63;;;-1.28;72.51
54910;BME280;63189;51.240;9.964;2023-02-28T06:03:58;99118.97;;;-1.29;73.23
54910;BME280;63189;51.240;9.964;2023-02-28T06:06:24;99123.13;;;-1.32;73.75
54910;BME280;63189;51.240;9.964;2023-02-28T06:08:50;99122.25;;;-1.33;74.31
54910;BME280;63189;51.240;9.964;2023-02-28T06:11:15;99114.53;;;-1.34;74.27
54910;BME280;63189;51.240;9.964;2023-02-28T06:13:40;99118.88;;;-1.32;74.31
54910;BME280;63189;51.240;9.964;2023-02-28T06:16:08;99112.91;;;-1.32;74.59
54910;BME280;63189;51.240;9.964;2023-02-28T06:18:34;99118.88;;;-1.32;74.55
54910;BME280;63189;51.240;9.964;2023-02-28T06:20:59;99118.06;;;-1.31;75.24
54910;BME280;63189;51.240;9.964;2023-02-28T06:23:25;99117.25;;;-1.30;74.61
54910;BME280;63189;51.240;9.964;2023-02-28T06:25:50;99108.69;;;-1.30;74.10
54910;BME280;63189;51.240;9.964;2023-02-28T06:28:16;99125.00;;;-1.27;74.37
54910;BME280;63189;51.240;9.964;2023-02-28T06:30:41;99122.41;;;-1.28;74.48
54910;BME280;63189;51.240;9.964;2023-02-28T06:33:06;99125.00;;;-1.27;74.52
54910;BME280;63189;51.240;9.964;2023-02-28T06:35:32;99124.97;;;-1.28;75.01
54910;BME280;63189;51.240;9.964;2023-02-28T06:37:57;99127.53;;;-1.28;72.97
54910;BME280;63189;51.240;9.964;2023-02-28T06:40:23;99122.50;;;-1.25;72.44
54910;BME280;63189;51.240;9.964;2023-02-28T06:42:48;99137.06;;;-1.24;71.86
54910;BME280;63189;51.240;9.964;2023-02-28T06:45:13;99145.66;;;-1.22;71.48
54910;BME280;63189;51.240;9.964;2023-02-28T06:47:40;99150.94;;;-1.18;72.08
54910;BME280;63189;51.240;9.964;2023-02-28T06:50:09;99148.50;;;-1.14;71.22
54910;BME280;63189;51.240;9.964;2023-02-28T06:52:35;99141.78;;;-1.11;70.51
54910;BME280;63189;51.240;9.964;2023-02-28T06:55:05;99155.53;;;-1.07;70.09
54910;BME280;63189;51.240;9.964;2023-02-28T06:57:32;99148.03;;;-1.03;69.49
54910;BME280;63189;51.240;9.964;2023-02-28T06:59:59;99149.78;;;-1.02;67.37
54910;BME280;63189;51.240;9.964;2023-02-28T07:02:24;99139.53;;;-1.02;65.16
54910;BME280;63189;51.240;9.964;2023-02-28T07:04:50;99147.41;;;-0.96;64.94
54910;BME280;63189;51.240;9.964;2023-02-28T07:07:15;99144.84;;;-0.96;63.69
54910;BME280;63189;51.240;9.964;2023-02-28T07:09:41;99151.88;;;-0.90;65.26
54910;BME280;63189;51.240;9.964;2023-02-28T07:12:06;99145.16;;;-0.87;64.91
54910;BME280;63189;51.240;9.964;2023-02-28T07:14:31;99140.16;;;-0.83;63.64
54910;BME280;63189;51.240;9.964;2023-02-28T07:16:57;99151.88;;;-0.90;59.56
54910;BME280;63189;51.240;9.964;2023-02-28T07:19:22;99155.47;;;-0.85;62.04
54910;BME280;63189;51.240;9.964;2023-02-28T07:21:47;99151.28;;;-0.83;63.08
54910;BME280;63189;51.240;9.964;2023-02-28T07:24:12;99147.91;;;-0.82;61.50
54910;BME280;63189;51.240;9.964;2023-02-28T07:26:41;99152.16;;;-0.82;61.60
54910;BME280;63189;51.240;9.964;2023-02-28T07:29:06;99164.13;;;-0.81;62.28
54910;BME280;63189;51.240;9.964;2023-02-28T07:31:31;99157.38;;;-0.79;61.78
54910;BME280;63189;51.240;9.964;2023-02-28T07:33:57;99159.00;;;-0.81;60.67
54910;BME280;63189;51.240;9.964;2023-02-28T07:36:22;99169.34;;;-0.78;59.60
54910;BME280;63189;51.240;9.964;2023-02-28T07:38:48;99155.00;;;-0.73;60.92
54910;BME280;63189;51.240;9.964;2023-02-28T07:41:16;99164.94;;;-0.57;61.02
54910;BME280;63189;51.240;9.964;2023-02-28T07:43:42;99154.38;;;-0.41;60.61
54910;BME280;63189;51.240;9.964;2023-02-28T07:46:10;99150.69;;;-0.22;58.59
54910;BME280;63189;51.240;9.964;2023-02-28T07:48:36;99160.09;;;0.06;59.10
54910;BME280;63189;51.240;9.964;2023-02-28T07:51:02;99154.06;;;0.33;58.66
54910;BME280;63189;51.240;9.964;2023-02-28T07:53:28;99146.31;;;0.61;57.66
54910;BME280;63189;51.240;9.964;2023-02-28T07:55:57;99143.75;;;0.93;57.34
54910;BME280;63189;51.240;9.964;2023-02-28T07:58:23;99142.16;;;1.29;54.16
54910;BME280;63189;51.240;9.964;2023-02-28T08:00:49;99140.69;;;1.75;56.04
54910;BME280;63189;51.240;9.964;2023-02-28T08:03:14;99152.59;;;2.08;53.07
54910;BME280;63189;51.240;9.964;2023-02-28T08:05:40;99146.41;;;2.39;52.81
54910;BME280;63189;51.240;9.964;2023-02-28T08:08:07;99150.19;;;2.54;52.21
54910;BME280;63189;51.240;9.964;2023-02-28T08:10:32;99145.06;;;3.01;52.43
54910;BME280;63189;51.240;9.964;2023-02-28T08:12:58;99147.34;;;3.33;48.71
54910;BME280;63189;51.240;9.964;2023-02-28T08:15:23;99149.38;;;3.49;46.95
54910;BME280;63189;51.240;9.964;2023-02-28T08:17:48;99142.63;;;3.56;49.62
54910;BME280;63189;51.240;9.964;2023-02-28T08:20:13;99140.25;;;3.69;45.90
54910;BME280;63189;51.240;9.964;2023-02-28T08:22:39;99141.78;;;4.16;49.01
54910;BME280;63189;51.240;9.964;2023-02-28T08:25:05;99136.97;;;4.39;48.59
54910;BME280;63189;51.240;9.964;2023-02-28T08:27:32;99139.09;;;4.72;46.86
54910;BME280;63189;51.240;9.964;2023-02-28T08:29:57;99143.53;;;4.83;44.52
54910;BME280;63189;51.240;9.964;2023-02-28T08:32:22;99133.34;;;4.97;45.60
54910;BME280;63189;51.240;9.964;2023-02-28T08:34:48;99135.59;;;4.68;45.07
54910;BME280;63189;51.240;9.964;2023-02-28T08:37:13;99138.34;;;4.83;45.06
54910;BME280;63189;51.240;9.964;2023-02-28T08:39:38;99138.69;;;5.12;45.04
54910;BME280;63189;51.240;9.964;2023-02-28T08:42:04;99135.56;;;5.48;45.39
54910;BME280;63189;51.240;9.964;2023-02-28T08:44:29;99129.50;;;5.46;41.94
54910;BME280;63189;51.240;9.964;2023-02-28T08:46:55;99129.72;;;5.71;45.20
54910;BME280;63189;51.240;9.964;2023-02-28T08:49:20;99134.38;;;5.13;43.66
54910;BME280;63189;51.240;9.964;2023-02-28T08:51:45;99150.22;;;4.68;46.16
54910;BME280;63189;51.240;9.964;2023-02-28T08:54:11;99142.41;;;4.60;45.02
54910;BME280;63189;51.240;9.964;2023-02-28T08:56:41;99137.97;;;4.50;47.15
54910;BME280;63189;51.240;9.964;2023-02-28T08:59:08;99147.88;;;4.18;45.52
54910;BME280;63189;51.240;9.964;2023-02-28T09:01:34;99145.09;;;4.05;44.64
54910;BME280;63189;51.240;9.964;2023-02-28T09:04:00;99147.25;;;3.76;45.75
54910;BME280;63189;51.240;9.964;2023-02-28T09:06:27;99156.50;;;3.14;46.25
54910;BME280;63189;51.240;9.964;2023-02-28T09:08:53;99173.09;;;2.84;46.43
54910;BME280;63189;51.240;9.964;2023-02-28T09:11:22;99153.19;;;2.76;47.39
54910;BME280;63189;51.240;9.964;2023-02-28T09:13:47;99154.31;;;2.90;47.09
54910;BME280;63189;51.240;9.964;2023-02-28T09:16:14;99152.38;;;2.78;48.62
54910;BME280;63189;51.240;9.964;2023-02-28T09:18:41;99154.97;;;3.24;47.65
54910;BME280;63189;51.240;9.964;2023-02-28T09:21:09;99157.28;;;3.11;46.36
54910;BME280;63189;51.240;9.964;2023-02-28T09:23:35;99151.28;;;3.62;48.16
54910;BME280;63189;51.240;9.964;2023-02-28T09:26:04;99150.38;;;4.15;48.58
54910;BME280;63189;51.240;9.964;2023-02-28T09:28:29;99149.78;;;4.32;47.81
54910;BME280;63189;51.240;9.964;2023-02-28T09:30:54;99154.94;;;4.32;46.06
54910;BME280;63189;51.240;9.964;2023-02-28T09:33:21;99153.53;;;4.56;46.26
54910;BME280;63189;51.240;9.964;2023-02-28T09:35:47;99148.94;;;5.06;45.56
54910;BME280;63189;51.240;9.964;2023-02-28T09:38:13;99157.22;;;4.78;45.51
54910;BME280;63189;51.240;9.964;2023-02-28T09:40:50;99147.31;;;5.14;44.93
54910;BME280;63189;51.240;9.964;2023-02-28T09:43:17;99135.56;;;5.50;44.76
54910;BME280;63189;51.240;9.964;2023-02-28T09:45:56;99142.34;;;5.33;42.30
54910;BME280;63189;51.240;9.964;2023-02-28T09:48:31;99144.25;;;5.55;44.98
54910;BME280;63189;51.240;9.964;2023-02-28T09:51:09;99142.72;;;5.78;42.73
54910;BME280;63189;51.240;9.964;2023-02-28T09:53:38;99143.66;;;5.88;41.80
54910;BME280;63189;51.240;9.964;2023-02-28T10:01:03;99145.47;;;6.00;43.74
54910;BME280;63189;51.240;9.964;2023-02-28T10:03:47;99148.28;;;6.32;42.09
54910;BME280;63189;51.240;9.964;2023-02-28T10:06:20;99143.16;;;6.41;42.22
54910;BME280;63189;51.240;9.964;2023-02-28T10:11:33;99150.16;;;6.60;40.08
54910;BME280;63189;51.240;9.964;2023-02-28T10:14:10;99149.28;;;6.66;38.48
54910;BME280;63189;51.240;9.964;2023-02-28T10:16:46;99142.44;;;6.76;40.18
54910;BME280;63189;51.240;9.964;2023-02-28T10:22:11;99151.13;;;6.96;40.37
54910;BME280;63189;51.240;9.964;2023-02-28T10:24:44;99150.34;;;7.29;40.25
54910;BME280;63189;51.240;9.964;2023-02-28T10:27:17;99136.56;;;7.44;40.25
54910;BME280;63189;51.240;9.964;2023-02-28T10:29:45;99133.97;;;7.42;40.63
54910;BME280;63189;51.240;9.964;2023-02-28T10:32:15;99152.03;;;7.07;39.00
54910;BME280;63189;51.240;9.964;2023-02-28T10:34:42;99145.97;;;7.04;40.98
54910;BME280;63189;51.240;9.964;2023-02-28T10:37:07;99140.66;;;6.59;39.43
54910;BME280;63189;51.240;9.964;2023-02-28T10:39:44;99151.09;;;6.78;40.67
54910;BME280;63189;51.240;9.964;2023-02-28T10:42:29;99156.28;;;6.84;40.84
54910;BME280;63189;51.240;9.964;2023-02-28T10:45:14;99145.97;;;6.90;40.37
54910;BME280;63189;51.240;9.964;2023-02-28T10:50:28;99143.38;;;6.91;40.52
54910;BME280;63189;51.240;9.964;2023-02-28T10:52:55;99127.81;;;6.96;41.72
54910;BME280;63189;51.240;9.964;2023-02-28T10:55:24;99132.09;;;6.79;39.74
54910;BME280;63189;51.240;9.964;2023-02-28T10:57:51;99133.88;;;7.01;43.16
54910;BME280;63189;51.240;9.964;2023-02-28T11:00:22;99132.13;;;6.97;39.27
54910;BME280;63189;51.240;9.964;2023-02-28T11:02:48;99139.94;;;7.05;42.80
54910;BME280;63189;51.240;9.964;2023-02-28T11:05:31;99131.31;;;7.13;40.09
54910;BME280;63189;51.240;9.964;2023-02-28T11:08:10;99130.44;;;6.99;38.96
54910;BME280;63189;51.240;9.964;2023-02-28T11:10:37;99128.63;;;6.86;40.95
54910;BME280;63189;51.240;9.964;2023-02-28T11:13:03;99133.69;;;6.52;39.63
54910;BME280;63189;51.240;9.964;2023-02-28T11:15:34;99127.56;;;6.33;40.65
54910;BME280;63189;51.240;9.964;2023-02-28T11:18:02;99117.06;;;6.06;40.44
54910;BME280;63189;51.240;9.964;2023-02-28T11:20:32;99121.38;;;6.08;40.15
54910;BME280;63189;51.240;9.964;2023-02-28T11:23:01;99114.47;;;6.07;40.13
54910;BME280;63189;51.240;9.964;2023-02-28T11:25:38;99116.38;;;6.42;43.12
54910;BME280;63189;51.240;9.964;2023-02-28T11:28:08;99114.66;;;6.36;40.18
54910;BME280;63189;51.240;9.964;2023-02-28T11:31:19;99112.81;;;6.25;42.52
54910;BME280;63189;51.240;9.964;2023-02-28T11:33:54;99112.88;;;6.34;41.91
54910;BME280;63189;51.240;9.964;2023-02-28T11:36:26;99106.84;;;6.32;41.65
54910;BME280;63189;51.240;9.964;2023-02-28T11:38:54;99114.59;;;6.35;41.75
54910;BME280;63189;51.240;9.964;2023-02-28T11:46:45;99114.59;;;6.32;40.89
54910;BME280;63189;51.240;9.964;2023-02-28T11:49:31;99112.06;;;6.44;42.26
54910;BME280;63189;51.240;9.964;2023-02-28T11:57:29;99104.91;;;5.96;42.39
54910;BME280;63189;51.240;9.964;2023-02-28T12:04:04;99100.44;;;5.75;42.93
54910;BME280;63189;51.240;9.964;2023-02-28T12:08:53;99099.44;;;5.61;42.98
54910;BME280;63189;51.240;9.964;2023-02-28T12:19:48;99085.94;;;6.01;46.62
54910;BME280;63189;51.240;9.964;2023-02-28T12:27:40;99077.16;;;5.83;42.96
54910;BME280;63189;51.240;9.964;2023-02-28T12:30:31;99083.34;;;5.95;44.77
54910;BME280;63189;51.240;9.964;2023-02-28T12:33:06;99087.69;;;6.04;44.24
54910;BME280;63189;51.240;9.964;2023-02-28T12:35:36;99072.25;;;6.21;45.52
54910;BME280;63189;51.240;9.964;2023-02-28T12:38:23;99079.97;;;6.15;43.11
54910;BME280;63189;51.240;9.964;2023-02-28T12:40:55;99062.75;;;6.20;43.85
54910;BME280;63189;51.240;9.964;2023-02-28T12:43:25;99070.53;;;6.24;44.44
54910;BME280;63189;51.240;9.964;2023-02-28T12:46:00;99066.25;;;6.26;43.68
54910;BME280;63189;51.240;9.964;2023-02-28T12:48:37;99071.47;;;6.37;47.48
54910;BME280;63189;51.240;9.964;2023-02-28T12:51:05;99060.28;;;6.52;46.24
54910;BME280;63189;51.240;9.964;2023-02-28T12:59:13;99059.03;;;5.75;42.61
54910;BME280;63189;51.240;9.964;2023-02-28T13:02:02;99059.94;;;5.85;43.15
54910;BME280;63189;51.240;9.964;2023-02-28T13:04:52;99063.41;;;5.90;45.23
54910;BME280;63189;51.240;9.964;2023-02-28T13:10:18;99049.56;;;5.82;44.45
54910;BME280;63189;51.240;9.964;2023-02-28T13:12:52;99052.94;;;5.73;45.05
54910;BME280;63189;51.240;9.964;2023-02-28T13:15:24;99045.22;;;5.76;44.85
54910;BME280;63189;51.240;9.964;2023-02-28T13:17:54;99040.06;;;5.82;47.46
54910;BME280;63189;51.240;9.964;2023-02-28T13:20:25;99038.25;;;5.66;44.34
54910;BME280;63189;51.240;9.964;2023-02-28T13:22:53;99034.88;;;5.76;45.03
54910;BME280;63189;51.240;9.964;2023-02-28T13:27:49;99050.34;;;5.67;43.56
54910;BME280;63189;51.240;9.964;2023-02-28T13:49:31;99031.94;;;5.24;44.59
54910;BME280;63189;51.240;9.964;2023-02-28T14:03:37;99021.41;;;5.03;46.31
54910;BME280;63189;51.240;9.964;2023-02-28T14:06:29;99023.94;;;4.97;45.12
54910;BME280;63189;51.240;9.964;2023-02-28T14:11:31;99015.09;;;4.72;46.90
54910;BME280;63189;51.240;9.964;2023-02-28T14:13:57;99014.25;;;4.74;47.75
54910;BME280;63189;51.240;9.964;2023-02-28T14:16:24;99010.81;;;4.78;47.31
54910;BME280;63189;51.240;9.964;2023-02-28T14:19:20;99002.28;;;4.84;47.59
54910;BME280;63189;51.240;9.964;2023-02-28T14:22:12;99011.78;;;4.86;46.94
54910;BME280;63189;51.240;9.964;2023-02-28T14:36:14;99013.06;;;4.42;48.45
54910;BME280;63189;51.240;9.964;2023-02-28T14:38:46;99006.97;;;4.37;47.96
54910;BME280;63189;51.240;9.964;2023-02-28T14:41:36;99002.66;;;4.35;48.09
54910;BME280;63189;51.240;9.964;2023-02-28T14:44:20;99006.09;;;4.36;48.63
54910;BME280;63189;51.240;9.964;2023-02-28T14:46:55;99006.03;;;4.30;48.62
54910;BME280;63189;51.240;9.964;2023-02-28T14:49:34;99000.03;;;4.31;48.10
54910;BME280;63189;51.240;9.964;2023-02-28T14:52:14;98997.44;;;4.29;47.93
54910;BME280;63189;51.240;9.964;2023-02-28T14:54:41;99003.47;;;4.31;49.20
54910;BME280;63189;51.240;9.964;2023-02-28T14:57:06;99005.84;;;4.16;47.78
54910;BME280;63189;51.240;9.964;2023-02-28T14:59:45;99009.28;;;4.15;49.33
54910;BME280;63189;51.240;9.964;2023-02-28T15:02:20;99007.53;;;4.11;48.62
54910;BME280;63189;51.240;9.964;2023-02-28T15:04:57;99005.84;;;4.15;50.11
54910;BME280;63189;51.240;9.964;2023-02-28T15:07:24;99001.50;;;4.11;49.68
54910;BME280;63189;51.240;9.964;2023-02-28T15:10:27;99004.84;;;4.02;48.98
54910;BME280;63189;51.240;9.964;2023-02-28T15:13:00;99002.22;;;3.99;50.10
54910;BME280;63189;51.240;9.964;2023-02-28T15:21:24;99016.69;;;3.86;49.92
54910;BME280;63189;51.240;9.964;2023-02-28T15:24:10;99013.19;;;3.83;50.63
54910;BME280;63189;51.240;9.964;2023-02-28T15:26:40;99014.03;;;3.80;50.27
54910;BME280;63189;51.240;9.964;2023-02-28T15:29:19;99005.41;;;3.80;50.43
54910;BME280;63189;51.240;9.964;2023-02-28T15:31:49;99004.47;;;3.74;50.31
54910;BME280;63189;51.240;9.964;2023-02-28T15:37:00;99015.50;;;3.63;50.03